Time;durP1;ratioP1;P1;durP2;ratioP2;P2;SDS_P1;SDS_P2;PMS_P1;PMS_P2;Temp;Humidity;BMP_temperature;BMP_pressure;BME280_temperature;BME280_humidity;BME280_pressure;Samples;Min_cycle;Max_cycle;Signal;HPM_P1;HPM_P2
2023/07/08 00:01:20;;;;;;;13.67;9.67;;;;;;;20.06;94.52;100154.50;4991251;28;20234;-60
2023/07/08 00:03:46;;;;;;;14.53;9.10;;;;;;;20.08;94.27;100147.31;5007063;28;20186;-60
2023/07/08 00:06:23;;;;;;;13.73;9.27;;;;;;;20.09;93.75;100141.13;5008405;28;20198;-59
2023/07/08 00:08:48;;;;;;;17.53;10.00;;;;;;;19.98;95.19;100136.91;5009502;28;20185;-59
2023/07/08 00:11:15;;;;;;;21.73;9.50;;;;;;;20.01;95.45;100131.44;5008550;28;20222;-60
2023/07/08 00:13:40;;;;;;;19.27;9.80;;;;;;;20.05;95.83;100132.78;5009097;28;20729;-60
2023/07/08 00:16:15;;;;;;;13.67;9.00;;;;;;;19.99;96.59;100128.97;5007782;28;20223;-60
2023/07/08 00:18:40;;;;;;;16.43;9.23;;;;;;;19.99;96.75;100134.19;5009413;28;20179;-59
2023/07/08 00:21:14;;;;;;;12.43;9.43;;;;;;;19.98;96.97;100136.91;5001846;28;20576;-59
2023/07/08 00:23:40;;;;;;;19.50;9.40;;;;;;;19.98;96.67;100127.31;5009331;28;20179;-60
2023/07/08 00:26:17;;;;;;;16.13;8.63;;;;;;;19.87;96.89;100139.72;5010366;28;20700;-60
2023/07/08 00:28:42;;;;;;;17.93;10.50;;;;;;;19.96;95.92;100142.28;5011325;28;20258;-59
2023/07/08 00:31:10;;;;;;;18.23;10.40;;;;;;;19.94;95.17;100144.22;5009539;28;20253;-59
2023/07/08 00:33:35;;;;;;;22.33;10.07;;;;;;;19.90;94.62;100145.47;4990855;28;20522;-60
2023/07/08 00:36:01;;;;;;;23.07;9.93;;;;;;;19.88;95.76;100141.38;4991188;28;20203;-61
2023/07/08 00:38:27;;;;;;;25.70;9.50;;;;;;;19.84;95.56;100152.06;4991538;28;20647;-59
2023/07/08 00:41:01;;;;;;;28.23;12.47;;;;;;;19.90;94.51;100149.88;4983434;28;20234;-59
2023/07/08 00:43:43;;;;;;;30.00;10.33;;;;;;;19.82;93.07;100154.00;4990418;28;20175;-59
2023/07/08 00:47:03;;;;;;;26.40;9.83;;;;;;;19.80;93.26;100150.69;4993289;28;20198;-58
2023/07/08 00:49:40;;;;;;;18.07;9.43;;;;;;;19.91;90.96;100141.91;4933557;29;20216;-59
2023/07/08 00:52:22;;;;;;;16.43;9.27;;;;;;;19.87;91.16;100140.56;5005196;28;20348;-59
2023/07/08 00:55:00;;;;;;;24.77;9.63;;;;;;;20.02;90.37;100146.13;5012357;28;20174;-59
2023/07/08 00:57:30;;;;;;;30.27;9.70;;;;;;;20.02;91.50;100140.91;5013304;28;20536;-59
2023/07/08 01:00:05;;;;;;;13.83;8.80;;;;;;;20.05;92.35;100134.56;5013038;28;20245;-60
2023/07/08 01:02:35;;;;;;;22.17;10.20;;;;;;;20.11;92.55;100137.41;4985902;28;20218;-60
2023/07/08 01:05:14;;;;;;;22.60;10.43;;;;;;;19.94;94.02;100139.00;5010552;28;20273;-60
2023/07/08 01:07:42;;;;;;;20.10;10.30;;;;;;;20.12;93.14;100136.44;5012983;28;20229;-59
2023/07/08 01:10:16;;;;;;;19.93;9.30;;;;;;;20.15;92.51;100132.72;5002792;28;20198;-60
2023/07/08 01:12:51;;;;;;;21.80;9.83;;;;;;;20.11;93.56;100134.81;5027175;28;20189;-58
2023/07/08 01:15:17;;;;;;;25.10;10.23;;;;;;;20.21;93.39;100145.19;5012409;28;20244;-59
2023/07/08 01:17:43;;;;;;;20.23;10.43;;;;;;;20.21;94.06;100141.78;5013354;28;20183;-59
2023/07/08 01:20:13;;;;;;;24.83;10.33;;;;;;;20.25;94.80;100145.72;5002135;28;20198;-59
2023/07/08 01:22:40;;;;;;;19.77;9.90;;;;;;;20.25;94.12;100137.91;5026782;28;20194;-60
2023/07/08 01:25:08;;;;;;;25.60;10.50;;;;;;;20.03;95.96;100126.06;5010621;28;20782;-60
2023/07/08 01:27:36;;;;;;;20.67;10.50;;;;;;;20.02;96.95;100114.78;5011777;28;20712;-59
2023/07/08 01:30:04;;;;;;;24.27;9.57;;;;;;;19.90;97.35;100106.31;5011692;28;20210;-60
2023/07/08 01:32:31;;;;;;;21.13;9.73;;;;;;;19.93;96.84;100110.44;4985902;28;20693;-61
2023/07/08 01:35:00;;;;;;;23.80;9.60;;;;;;;19.96;97.06;100094.50;5010904;28;20190;-60
2023/07/08 01:37:30;;;;;;;19.00;9.77;;;;;;;20.05;95.86;100093.59;5005684;28;20634;-60
2023/07/08 01:39:56;;;;;;;17.53;9.47;;;;;;;20.04;97.43;100101.59;5008795;28;20274;-60
2023/07/08 01:42:21;;;;;;;28.43;9.87;;;;;;;20.03;97.91;100087.69;5018133;28;20317;-59
2023/07/08 01:44:47;;;;;;;18.83;9.50;;;;;;;19.99;98.57;100089.81;5012714;28;20175;-58
2023/07/08 01:47:19;;;;;;;13.40;9.27;;;;;;;19.92;98.85;100095.72;5011877;28;20179;-59
2023/07/08 01:49:47;;;;;;;18.83;8.37;;;;;;;19.87;100.00;100111.00;5011404;28;20663;-59
2023/07/08 01:52:16;;;;;;;15.63;9.53;;;;;;;19.73;100.00;100122.72;4992543;28;20309;-59
2023/07/08 01:54:41;;;;;;;13.73;8.70;;;;;;;19.55;100.00;100128.66;4991592;28;20183;-59
2023/07/08 01:57:06;;;;;;;15.77;9.00;;;;;;;19.31;100.00;100132.56;4992544;28;20183;-59
2023/07/08 01:59:31;;;;;;;20.33;8.47;;;;;;;19.05;100.00;100116.66;5011350;28;20582;-59
2023/07/08 02:01:57;;;;;;;21.97;9.13;;;;;;;18.90;100.00;100121.44;5017898;28;20274;-61
2023/07/08 02:04:24;;;;;;;23.57;8.73;;;;;;;19.02;100.00;100115.16;5010117;28;20187;-58
2023/07/08 02:07:00;;;;;;;21.07;9.60;;;;;;;19.17;99.63;100115.53;5008139;28;20219;-59
2023/07/08 02:09:25;;;;;;;15.33;8.43;;;;;;;19.33;100.00;100116.78;5004029;28;20285;-59
2023/07/08 02:11:52;;;;;;;26.87;8.60;;;;;;;19.28;100.00;100119.78;5016172;28;20326;-60
2023/07/08 02:14:17;;;;;;;12.27;8.27;;;;;;;19.17;100.00;100133.78;5003178;28;20175;-60
2023/07/08 02:16:42;;;;;;;16.33;8.43;;;;;;;19.08;100.00;100136.44;5006907;28;20248;-58
2023/07/08 02:19:10;;;;;;;18.17;8.60;;;;;;;19.03;100.00;100129.84;5005684;28;20255;-60
2023/07/08 02:21:35;;;;;;;14.53;7.57;;;;;;;18.91;100.00;100128.31;4974660;28;20231;-60
2023/07/08 02:24:00;;;;;;;13.13;8.20;;;;;;;18.67;100.00;100124.31;4993325;28;20191;-68
2023/07/08 02:26:26;;;;;;;15.43;9.17;;;;;;;18.45;100.00;100121.97;4992893;28;20183;-66
2023/07/08 02:28:51;;;;;;;16.30;7.90;;;;;;;18.39;100.00;100112.88;5006376;28;20701;-60
2023/07/08 02:31:17;;;;;;;11.50;7.93;;;;;;;18.24;100.00;100115.03;4992479;28;20230;-63
2023/07/08 02:33:42;;;;;;;16.53;8.27;;;;;;;18.26;100.00;100110.53;4999225;28;20175;-60
2023/07/08 02:36:07;;;;;;;11.67;7.53;;;;;;;18.29;100.00;100109.44;4992934;28;20195;-60
2023/07/08 02:38:32;;;;;;;9.60;7.80;;;;;;;18.36;100.00;100115.78;4993281;28;20191;-60
2023/07/08 02:40:58;;;;;;;10.93;6.70;;;;;;;18.45;100.00;100121.97;4990181;28;20557;-60
2023/07/08 02:43:23;;;;;;;12.97;7.67;;;;;;;18.51;100.00;100121.41;5000889;28;20186;-60
2023/07/08 02:45:50;;;;;;;9.80;7.33;;;;;;;18.51;100.00;100121.41;4992350;28;20179;-59
2023/07/08 02:48:17;;;;;;;10.40;7.57;;;;;;;18.35;100.00;100116.72;4991121;28;20226;-60
2023/07/08 02:50:42;;;;;;;10.37;7.77;;;;;;;18.18;100.00;100119.03;4984631;28;20275;-60
2023/07/08 02:53:08;;;;;;;17.80;7.03;;;;;;;18.04;100.00;100107.19;5003351;28;20175;-59
2023/07/08 02:55:33;;;;;;;9.77;7.23;;;;;;;18.10;100.00;100116.25;4992665;28;20206;-60
2023/07/08 02:57:58;;;;;;;18.37;8.03;;;;;;;18.06;100.00;100120.88;4993611;28;20183;-60
2023/07/08 03:00:24;;;;;;;8.20;7.13;;;;;;;18.14;100.00;100122.00;4971476;28;20275;-62
2023/07/08 03:02:49;;;;;;;13.67;7.87;;;;;;;18.06;100.00;100120.88;4978904;28;20751;-59
2023/07/08 03:05:14;;;;;;;10.23;8.07;;;;;;;18.12;100.00;100123.91;4985531;28;20753;-60
2023/07/08 03:07:39;;;;;;;10.33;7.60;;;;;;;18.16;100.00;100115.72;4992596;28;20254;-59
2023/07/08 03:10:06;;;;;;;12.40;7.63;;;;;;;18.20;100.00;100117.09;4982666;28;20712;-60
2023/07/08 03:12:31;;;;;;;9.83;7.07;;;;;;;18.16;100.00;100120.09;4987361;28;20212;-60
2023/07/08 03:14:57;;;;;;;9.17;7.80;;;;;;;18.29;100.00;100130.28;4985596;28;20216;-60
2023/07/08 03:17:22;;;;;;;10.47;7.20;;;;;;;18.37;100.00;100125.25;4997704;28;20267;-61
2023/07/08 03:19:47;;;;;;;13.07;7.57;;;;;;;18.38;100.00;100124.25;5005377;28;20183;-60
2023/07/08 03:22:13;;;;;;;10.70;7.77;;;;;;;18.44;100.00;100128.13;5016709;28;20229;-60
2023/07/08 03:24:45;;;;;;;9.37;7.63;;;;;;;18.57;100.00;100127.84;4998338;28;20270;-66
2023/07/08 03:27:11;;;;;;;14.47;7.13;;;;;;;18.68;100.00;100128.56;4986626;28;20234;-60
2023/07/08 03:29:36;;;;;;;11.40;8.17;;;;;;;18.77;100.00;100131.31;5011319;28;20198;-59
2023/07/08 03:32:02;;;;;;;13.67;7.17;;;;;;;18.81;100.00;100122.28;4961782;28;20226;-60
2023/07/08 03:34:27;;;;;;;9.53;7.30;;;;;;;18.85;100.00;100124.47;4991439;28;20179;-59
2023/07/08 03:36:53;;;;;;;12.23;7.53;;;;;;;18.85;100.00;100127.06;4989724;28;20261;-60
2023/07/08 03:39:23;;;;;;;10.07;7.47;;;;;;;18.95;100.00;100131.47;4985011;28;20555;-60
2023/07/08 03:41:50;;;;;;;9.37;7.40;;;;;;;18.99;100.00;100125.88;5002159;28;20582;-60
2023/07/08 03:44:15;;;;;;;10.63;7.50;;;;;;;19.06;100.00;100126.13;5009056;28;20277;-62
2023/07/08 03:46:42;;;;;;;10.70;7.57;;;;;;;19.10;98.12;100127.50;4992232;28;20186;-61
2023/07/08 03:49:09;;;;;;;14.67;7.90;;;;;;;19.17;98.80;100127.78;4990899;28;20222;-61
2023/07/08 03:51:36;;;;;;;11.87;7.10;;;;;;;19.25;98.79;100127.91;4977192;28;20231;-60
2023/07/08 03:54:02;;;;;;;8.27;7.10;;;;;;;19.30;98.98;100130.06;4986904;28;20202;-60
2023/07/08 03:56:27;;;;;;;8.97;6.90;;;;;;;19.39;99.49;100131.00;4990691;28;20631;-60
2023/07/08 03:58:53;;;;;;;10.30;6.80;;;;;;;19.35;100.00;100139.13;4992252;28;20196;-60
2023/07/08 04:01:26;;;;;;;14.07;7.60;;;;;;;19.41;97.56;100140.38;4991780;28;20714;-59
2023/07/08 04:03:53;;;;;;;10.93;6.87;;;;;;;19.47;98.12;100145.03;4996449;28;20191;-60
2023/07/08 04:06:18;;;;;;;8.70;6.70;;;;;;;19.58;98.74;100133.59;4990118;28;20230;-60
2023/07/08 04:08:44;;;;;;;14.83;7.20;;;;;;;19.65;97.42;100142.50;4990291;28;20545;-59
2023/07/08 04:11:14;;;;;;;8.63;6.30;;;;;;;19.74;93.03;100143.44;4998058;28;20280;-60
2023/07/08 04:13:39;;;;;;;9.70;6.17;;;;;;;19.80;91.65;100144.66;4995382;28;20512;-59
2023/07/08 04:16:05;;;;;;;7.60;5.93;;;;;;;19.86;91.03;100141.50;4992134;28;20179;-60
2023/07/08 04:18:31;;;;;;;8.73;6.23;;;;;;;19.78;94.06;100134.38;5008380;28;20237;-60
2023/07/08 04:20:56;;;;;;;9.77;6.20;;;;;;;19.83;94.65;100137.41;5012034;28;20586;-60
2023/07/08 04:23:22;;;;;;;8.90;6.30;;;;;;;19.90;91.71;100135.03;5023167;28;20184;-60
2023/07/08 04:25:49;;;;;;;6.80;5.47;;;;;;;19.84;90.25;100143.44;5014470;28;20654;-59
2023/07/08 04:28:15;;;;;;;7.97;6.03;;;;;;;20.11;89.38;100141.81;5011716;28;20237;-60
2023/07/08 04:30:41;;;;;;;6.77;6.07;;;;;;;20.29;89.84;100141.84;4990690;28;20289;-60
2023/07/08 04:33:08;;;;;;;8.13;5.87;;;;;;;20.41;92.60;100142.50;4994236;28;20191;-60
2023/07/08 04:35:34;;;;;;;6.57;5.70;;;;;;;20.48;93.24;100148.78;4993712;28;20254;-60
2023/07/08 04:38:00;;;;;;;8.10;6.07;;;;;;;20.50;94.65;100156.47;4993876;28;20187;-59
2023/07/08 04:40:26;;;;;;;7.27;5.83;;;;;;;20.56;94.10;100161.09;4986721;28;20611;-59
2023/07/08 04:42:52;;;;;;;6.53;5.77;;;;;;;20.54;91.02;100163.88;4993976;28;20242;-60
2023/07/08 04:45:17;;;;;;;17.13;5.80;;;;;;;20.53;88.53;100161.38;4995296;28;20261;-60
2023/07/08 04:47:46;;;;;;;11.23;6.27;;;;;;;20.61;87.57;100164.09;4994140;28;20245;-60
2023/07/08 04:50:12;;;;;;;8.40;5.67;;;;;;;20.69;86.95;100166.78;4986314;28;20195;-60
2023/07/08 04:52:38;;;;;;;12.63;6.30;;;;;;;20.74;88.82;100179.44;5008719;28;20234;-60
2023/07/08 04:55:03;;;;;;;9.03;6.37;;;;;;;20.81;90.58;100172.63;4994432;28;20175;-60
2023/07/08 04:57:28;;;;;;;8.10;5.50;;;;;;;20.83;91.75;100169.91;4994958;28;20653;-59
2023/07/08 04:59:54;;;;;;;13.60;5.60;;;;;;;20.89;91.48;100174.53;4993892;28;20233;-60
2023/07/08 05:02:19;;;;;;;11.73;6.00;;;;;;;20.92;89.81;100167.19;4984736;28;20679;-59
2023/07/08 05:04:45;;;;;;;7.67;5.70;;;;;;;21.02;87.98;100163.69;4993339;28;20183;-60
2023/07/08 05:07:10;;;;;;;8.27;6.13;;;;;;;20.90;88.39;100163.06;4994710;28;20219;-60
2023/07/08 05:09:35;;;;;;;7.83;6.30;;;;;;;20.86;89.26;100159.94;4994884;28;20211;-61
2023/07/08 05:12:01;;;;;;;13.80;5.60;;;;;;;20.78;90.78;100154.66;4999349;28;20222;-61
2023/07/08 05:14:26;;;;;;;7.13;5.90;;;;;;;20.78;91.20;100150.22;4993050;28;20229;-60
2023/07/08 05:16:51;;;;;;;7.17;5.90;;;;;;;20.92;92.88;100161.16;4994674;28;20245;-60
2023/07/08 05:19:16;;;;;;;6.57;5.30;;;;;;;21.12;91.29;100169.66;4994340;28;20871;-59
2023/07/08 05:21:42;;;;;;;7.10;5.63;;;;;;;21.36;91.58;100170.81;4986265;28;20249;-59
2023/07/08 05:24:08;;;;;;;6.90;5.40;;;;;;;21.57;91.58;100178.34;4996247;28;20183;-59
2023/07/08 05:26:33;;;;;;;7.37;5.43;;;;;;;21.68;88.98;100179.91;4995070;28;20230;-59
2023/07/08 05:28:59;;;;;;;6.17;5.57;;;;;;;21.77;86.62;100179.78;5005658;28;20305;-59
2023/07/08 05:31:24;;;;;;;7.23;5.70;;;;;;;21.78;79.63;100183.25;4986030;28;20248;-59
2023/07/08 05:33:50;;;;;;;6.63;5.00;;;;;;;21.81;77.88;100180.31;4999120;28;20255;-59
2023/07/08 05:36:16;;;;;;;6.23;5.60;;;;;;;21.66;75.65;100182.66;4992044;28;20235;-60
2023/07/08 05:38:41;;;;;;;13.97;5.40;;;;;;;21.48;68.93;100177.44;4992773;28;20285;-60
2023/07/08 05:41:06;;;;;;;9.03;5.07;;;;;;;21.50;70.23;100172.88;4992336;28;20237;-60
2023/07/08 05:43:32;;;;;;;6.43;5.23;;;;;;;21.45;68.18;100175.94;5001565;28;20512;-59
2023/07/08 05:45:59;;;;;;;9.23;5.50;;;;;;;21.59;65.02;100173.78;4994417;28;20191;-59
2023/07/08 05:48:24;;;;;;;6.03;5.43;;;;;;;21.61;63.66;100177.09;4992945;28;20171;-59
2023/07/08 05:50:50;;;;;;;6.93;6.10;;;;;;;21.80;61.33;100183.09;4989882;28;20247;-59
2023/07/08 05:53:19;;;;;;;7.03;5.00;;;;;;;21.97;62.84;100181.34;5003031;28;20543;-59
2023/07/08 05:55:45;;;;;;;5.80;5.20;;;;;;;22.03;56.63;100181.56;4991908;28;20188;-59
2023/07/08 05:58:10;;;;;;;7.13;5.10;;;;;;;22.24;56.62;100188.22;4992631;28;20205;-59
2023/07/08 06:00:36;;;;;;;10.60;5.00;;;;;;;22.32;56.08;100184.81;4987541;28;20226;-59
2023/07/08 06:03:01;;;;;;;8.70;5.07;;;;;;;22.27;53.95;100184.47;4992597;28;20180;-60
2023/07/08 06:05:26;;;;;;;5.93;5.20;;;;;;;22.49;54.68;100201.41;4993356;28;20639;-60
2023/07/08 06:07:51;;;;;;;6.30;5.00;;;;;;;22.66;58.53;100208.38;4996800;28;20234;-60
2023/07/08 06:10:17;;;;;;;6.83;5.10;;;;;;;22.83;57.98;100205.78;4984982;28;20238;-60
2023/07/08 06:12:42;;;;;;;7.93;5.33;;;;;;;22.72;63.43;100201.63;4992127;28;20180;-59
2023/07/08 06:15:08;;;;;;;6.13;5.10;;;;;;;22.69;62.20;100200.16;4993113;28;20187;-59
2023/07/08 06:17:33;;;;;;;16.27;5.13;;;;;;;22.67;60.25;100201.31;4993829;28;20179;-60
2023/07/08 06:19:59;;;;;;;5.30;4.67;;;;;;;21.95;68.07;100209.50;4993749;28;20282;-59
2023/07/08 06:22:24;;;;;;;5.70;5.17;;;;;;;21.53;77.54;100206.63;4998227;28;20219;-59
2023/07/08 06:24:49;;;;;;;6.53;5.47;;;;;;;21.10;75.25;100205.63;4991488;28;20175;-60
2023/07/08 06:27:15;;;;;;;6.40;5.30;;;;;;;21.12;73.12;100222.78;5000024;28;20227;-59
2023/07/08 06:29:40;;;;;;;6.63;5.90;;;;;;;21.65;65.24;100222.09;4999494;28;20745;-61
2023/07/08 06:32:06;;;;;;;6.10;4.80;;;;;;;22.30;66.15;100212.94;4998316;28;20227;-58
2023/07/08 06:34:32;;;;;;;5.70;4.50;;;;;;;22.53;58.36;100221.91;4990827;28;20175;-61
2023/07/08 06:36:57;;;;;;;6.80;5.33;;;;;;;22.66;57.76;100216.22;4993003;28;20810;-60
2023/07/08 06:39:22;;;;;;;9.40;5.60;;;;;;;22.67;56.66;100225.72;4993068;28;20215;-60
2023/07/08 06:41:47;;;;;;;6.43;5.20;;;;;;;22.98;56.35;100237.44;4983362;28;20222;-60
2023/07/08 06:44:13;;;;;;;5.90;5.00;;;;;;;23.38;60.72;100251.59;4994097;28;20231;-59
2023/07/08 06:46:38;;;;;;;5.73;5.10;;;;;;;23.73;57.91;100257.50;4993346;28;20692;-60
2023/07/08 06:49:03;;;;;;;6.70;4.57;;;;;;;23.95;57.14;100261.28;4993076;28;20187;-59
2023/07/08 06:51:29;;;;;;;9.30;5.00;;;;;;;24.18;49.82;100260.56;4993836;28;20222;-60
2023/07/08 06:53:55;;;;;;;6.73;5.50;;;;;;;24.17;48.98;100251.03;4996654;28;20183;-62
2023/07/08 06:56:20;;;;;;;7.87;5.03;;;;;;;24.00;49.67;100247.63;4991728;28;20195;-59
2023/07/08 06:58:46;;;;;;;7.60;5.30;;;;;;;24.04;50.39;100258.59;4992817;28;20635;-59
2023/07/08 07:01:11;;;;;;;7.83;5.33;;;;;;;24.17;56.99;100265.00;4981690;28;20234;-60
2023/07/08 07:03:37;;;;;;;6.37;5.63;;;;;;;24.39;50.32;100257.34;4999410;28;20674;-60
2023/07/08 07:06:03;;;;;;;13.33;5.57;;;;;;;23.98;53.23;100260.91;4993460;28;20183;-60
2023/07/08 07:08:28;;;;;;;10.53;5.83;;;;;;;23.52;55.81;100261.44;4992802;28;20196;-58
2023/07/08 07:10:53;;;;;;;6.87;5.67;;;;;;;23.27;62.28;100254.53;4989042;28;20231;-59
2023/07/08 07:13:18;;;;;;;9.00;5.53;;;;;;;23.25;61.30;100267.84;5000872;28;20210;-58
2023/07/08 07:15:44;;;;;;;9.70;5.67;;;;;;;23.47;58.99;100269.00;4987121;28;20545;-58
2023/07/08 07:18:09;;;;;;;6.43;4.63;;;;;;;23.60;54.19;100263.22;4991093;28;20218;-60
2023/07/08 07:20:37;;;;;;;7.83;5.00;;;;;;;23.67;60.47;100271.28;4987007;28;20539;-59
2023/07/08 07:23:03;;;;;;;9.27;5.43;;;;;;;23.91;58.52;100273.06;5002759;28;20176;-59
2023/07/08 07:25:28;;;;;;;10.33;5.67;;;;;;;24.15;54.21;100269.59;4992163;28;20190;-59
2023/07/08 07:27:53;;;;;;;7.07;4.93;;;;;;;24.63;52.38;100263.50;4992269;28;20277;-59
2023/07/08 07:30:19;;;;;;;5.87;5.13;;;;;;;24.80;52.05;100264.25;4963814;28;20199;-59
2023/07/08 07:32:44;;;;;;;8.10;5.47;;;;;;;25.31;49.78;100266.38;4990549;28;20178;-60
2023/07/08 07:35:14;;;;;;;7.40;5.10;;;;;;;25.56;47.32;100260.97;4991629;28;20187;-60
2023/07/08 07:37:42;;;;;;;8.98;5.22;;;;;;;25.86;51.92;100268.91;4992144;28;20649;-61
2023/07/08 07:40:14;;;;;;;10.85;5.30;;;;;;;26.46;42.67;100275.03;4981327;28;20619;-60
2023/07/08 07:42:40;;;;;;;10.63;4.60;;;;;;;26.65;41.73;100271.00;4990842;28;20176;-60
2023/07/08 07:45:06;;;;;;;7.35;4.93;;;;;;;29.07;39.18;100268.19;4991898;28;20195;-59
2023/07/08 07:47:32;;;;;;;8.32;5.43;;;;;;;31.75;32.91;100276.19;4990397;28;20218;-59
2023/07/08 07:49:58;;;;;;;591.78;183.18;;;;;;;33.72;29.34;100277.66;4991908;28;20230;-60
2023/07/08 07:52:24;;;;;;;7.55;5.25;;;;;;;33.22;28.30;100297.50;4983933;28;20285;-59
2023/07/08 07:54:51;;;;;;;5.10;4.60;;;;;;;34.42;27.10;100287.41;4995774;28;20179;-59
2023/07/08 07:57:16;;;;;;;8.38;5.15;;;;;;;32.53;27.57;100295.22;4994886;28;20234;-60
2023/07/08 07:59:41;;;;;;;5.43;4.70;;;;;;;31.42;28.86;100285.25;4996561;28;20187;-60
2023/07/08 08:02:08;;;;;;;5.75;4.68;;;;;;;31.21;28.89;100276.66;5000822;28;20712;-60
2023/07/08 08:04:33;;;;;;;6.43;5.22;;;;;;;31.57;28.99;100274.28;4993853;28;20270;-59
2023/07/08 08:06:58;;;;;;;11.52;5.32;;;;;;;31.01;30.17;100263.44;4995695;28;20269;-59
2023/07/08 08:09:24;;;;;;;5.60;5.05;;;;;;;32.12;27.62;100274.34;4995706;28;20237;-59
2023/07/08 08:11:49;;;;;;;11.07;5.30;;;;;;;31.72;29.29;100274.78;4999629;28;20222;-59
2023/07/08 08:14:14;;;;;;;6.85;4.85;;;;;;;31.49;29.41;100278.03;4996852;28;20308;-59
2023/07/08 08:16:39;;;;;;;5.30;4.80;;;;;;;32.28;29.24;100285.47;4995843;28;20701;-59
2023/07/08 08:19:05;;;;;;;5.57;5.00;;;;;;;31.86;28.41;100284.25;4995649;28;20171;-60
2023/07/08 08:21:30;;;;;;;9.13;5.15;;;;;;;32.29;27.96;100285.25;4996751;28;20780;-60
2023/07/08 08:23:55;;;;;;;5.72;5.07;;;;;;;32.81;26.93;100287.47;4999769;28;20188;-59
2023/07/08 08:26:20;;;;;;;7.00;4.75;;;;;;;33.61;25.78;100277.41;4994827;28;20298;-63
2023/07/08 08:28:46;;;;;;;1031.25;189.82;;;;;;;34.65;24.43;100280.34;4995680;28;20230;-62
2023/07/08 08:31:11;;;;;;;5.28;4.78;;;;;;;34.02;24.83;100276.69;4987346;28;20582;-61
2023/07/08 08:33:36;;;;;;;6.43;5.13;;;;;;;33.52;25.58;100283.34;4983257;28;20225;-60
2023/07/08 08:36:02;;;;;;;5.53;4.95;;;;;;;33.44;25.40;100287.13;5013722;28;20203;-59
2023/07/08 08:38:27;;;;;;;11.18;5.40;;;;;;;35.00;24.38;100289.25;5004527;28;20230;-59
2023/07/08 08:40:52;;;;;;;10.48;5.72;;;;;;;35.98;22.75;100286.16;5006519;28;20229;-59
2023/07/08 08:43:30;;;;;;;10.13;4.95;;;;;;;35.42;24.88;100286.19;5004656;28;20187;-59
2023/07/08 08:46:04;;;;;;;5.78;5.03;;;;;;;36.39;23.08;100288.53;4995286;28;20195;-60
2023/07/08 08:48:35;;;;;;;5.20;4.75;;;;;;;35.39;24.23;100290.16;4993676;28;20275;-59
2023/07/08 08:51:09;;;;;;;5.97;4.82;;;;;;;33.12;26.04;100277.59;4986831;28;20309;-59
2023/07/08 08:53:35;;;;;;;6.18;5.57;;;;;;;33.18;27.05;100280.38;4993995;28;20634;-60
2023/07/08 08:56:27;;;;;;;5.53;5.03;;;;;;;32.16;27.66;100277.38;4994746;28;20239;-59
2023/07/08 08:59:13;;;;;;;6.18;5.68;;;;;;;31.85;27.01;100279.16;4999037;28;20183;-61
2023/07/08 09:01:38;;;;;;;7.38;5.47;;;;;;;30.74;30.00;100283.03;4991217;28;20369;-59
2023/07/08 09:04:11;;;;;;;6.63;5.25;;;;;;;31.43;30.90;100287.69;4996357;28;20595;-60
2023/07/08 09:06:39;;;;;;;6.60;5.88;;;;;;;30.33;29.47;100286.88;5008929;28;20238;-59
2023/07/08 09:09:21;;;;;;;6.85;5.60;;;;;;;31.55;29.60;100285.94;5012815;28;20163;-59
2023/07/08 09:12:04;;;;;;;8.15;6.45;;;;;;;30.36;29.60;100289.09;5005219;28;20226;-59
2023/07/08 09:14:32;;;;;;;7.25;6.43;;;;;;;31.96;28.56;100288.25;5010688;28;20182;-59
2023/07/08 09:17:13;;;;;;;8.38;6.57;;;;;;;32.42;26.65;100294.09;4993077;28;20183;-60
2023/07/08 09:19:57;;;;;;;6.47;5.88;;;;;;;32.82;26.49;100290.94;4993436;28;20234;-60
2023/07/08 09:22:44;;;;;;;10.85;6.75;;;;;;;33.11;26.58;100278.63;4983186;28;20235;-62
2023/07/08 09:25:44;;;;;;;8.63;6.22;;;;;;;33.25;27.26;100281.88;4999413;28;20172;-60
2023/07/08 09:28:13;;;;;;;9.27;6.20;;;;;;;33.87;25.36;100278.00;5001462;28;20229;-60
2023/07/08 09:30:39;;;;;;;6.70;6.05;;;;;;;31.95;28.29;100274.13;4986244;28;20238;-61
2023/07/08 09:33:07;;;;;;;7.70;6.25;;;;;;;31.35;29.02;100269.38;5005726;28;20206;-59
2023/07/08 09:35:50;;;;;;;9.73;6.53;;;;;;;31.78;29.01;100268.59;5011704;28;20520;-60
2023/07/08 09:38:20;;;;;;;7.10;6.40;;;;;;;32.69;29.79;100259.97;5002717;28;20186;-59
2023/07/08 09:40:49;;;;;;;7.22;6.53;;;;;;;31.91;28.34;100261.53;5005368;28;20233;-60
2023/07/08 09:43:34;;;;;;;8.20;6.25;;;;;;;32.51;27.93;100260.81;5022984;28;20182;-60
2023/07/08 09:46:00;;;;;;;6.82;6.22;;;;;;;31.59;28.87;100256.28;5011481;28;20269;-58
2023/07/08 09:48:33;;;;;;;11.10;6.28;;;;;;;30.37;30.83;100250.91;4992568;28;20593;-60
2023/07/08 09:50:59;;;;;;;9.43;5.72;;;;;;;31.67;28.73;100248.06;4985318;28;20657;-59
2023/07/08 09:53:24;;;;;;;6.43;5.70;;;;;;;33.19;27.35;100244.69;4976802;28;20194;-59
2023/07/08 09:55:50;;;;;;;9.55;6.35;;;;;;;34.57;25.25;100243.31;4993676;28;20192;-59
2023/07/08 09:58:24;;;;;;;6.72;6.03;;;;;;;36.30;24.28;100255.22;4993686;28;20292;-59
2023/07/08 10:00:54;;;;;;;8.07;6.25;;;;;;;37.95;23.13;100251.91;4989555;28;20280;-60
2023/07/08 10:03:31;;;;;;;6.07;5.47;;;;;;;35.98;25.75;100251.38;4992776;28;20188;-58
2023/07/08 10:06:00;;;;;;;10.43;6.55;;;;;;;34.73;26.19;100255.09;4994383;28;20183;-60
2023/07/08 10:08:34;;;;;;;6.93;6.25;;;;;;;34.20;26.17;100251.69;4994246;28;20188;-59
2023/07/08 10:11:18;;;;;;;7.93;5.53;;;;;;;36.05;25.64;100255.72;4985378;28;20230;-59
2023/07/08 10:13:48;;;;;;;12.88;5.85;;;;;;;36.88;23.02;100258.22;4991695;28;20709;-58
2023/07/08 10:16:14;;;;;;;7.43;6.03;;;;;;;36.86;22.60;100249.63;4992819;28;20674;-61
2023/07/08 10:18:41;;;;;;;10.55;5.88;;;;;;;37.55;22.53;100256.03;4993411;28;20270;-59
2023/07/08 10:21:26;;;;;;;7.72;6.28;;;;;;;35.84;24.38;100263.50;4985448;28;20254;-59
2023/07/08 10:24:24;;;;;;;8.75;6.00;;;;;;;35.34;24.45;100249.97;4997996;28;20206;-59
2023/07/08 10:27:03;;;;;;;8.63;6.53;;;;;;;35.64;24.54;100248.00;4987942;28;20246;-60
2023/07/08 10:29:58;;;;;;;10.95;6.15;;;;;;;35.90;24.38;100240.28;5011164;28;20669;-59
2023/07/08 10:32:34;;;;;;;7.45;6.50;;;;;;;35.46;24.53;100239.16;4949159;28;20259;-59
2023/07/08 10:35:25;;;;;;;9.95;6.35;;;;;;;36.50;24.07;100252.75;4954307;28;20188;-60
2023/07/08 10:37:59;;;;;;;7.75;6.05;;;;;;;36.55;24.02;100257.38;4946096;29;20185;-58
2023/07/08 10:40:33;;;;;;;6.38;5.72;;;;;;;37.74;24.43;100252.88;4931096;28;20244;-60
2023/07/08 10:43:19;;;;;;;13.05;6.10;;;;;;;37.88;22.21;100250.56;4942366;28;20196;-59
2023/07/08 10:46:02;;;;;;;8.60;6.20;;;;;;;38.23;22.43;100252.53;4970919;28;20192;-58
2023/07/08 10:48:45;;;;;;;10.13;8.80;;;;;;;35.86;25.26;100246.13;4970900;28;20235;-58
2023/07/08 10:51:28;;;;;;;7.03;5.93;;;;;;;35.09;25.93;100250.34;4928502;29;20260;-60
2023/07/08 10:54:06;;;;;;;8.73;6.38;;;;;;;34.03;27.77;100244.44;4935929;29;20218;-60
2023/07/08 10:56:47;;;;;;;6.30;5.68;;;;;;;34.27;27.33;100239.84;4951620;29;20212;-60
2023/07/08 10:59:34;;;;;;;11.55;6.40;;;;;;;33.39;27.83;100242.53;4967718;28;20184;-59
2023/07/08 11:02:21;;;;;;;8.65;6.35;;;;;;;32.32;29.69;100244.06;4934114;28;20228;-61
2023/07/08 11:05:03;;;;;;;10.25;6.15;;;;;;;32.14;29.93;100245.69;4941324;29;20195;-61
2023/07/08 11:07:35;;;;;;;7.30;6.13;;;;;;;31.81;30.85;100233.56;4951354;29;20176;-59
2023/07/08 11:10:35;;;;;;;9.15;6.25;;;;;;;30.95;32.25;100233.28;5004431;28;20226;-60
2023/07/08 11:13:11;;;;;;;10.75;6.25;;;;;;;31.24;32.45;100223.06;4944440;28;20220;-59
2023/07/08 11:15:58;;;;;;;8.98;7.32;;;;;;;30.66;33.33;100224.88;4926267;29;20244;-60
2023/07/08 11:18:45;;;;;;;9.98;6.47;;;;;;;30.84;33.56;100228.66;4964833;28;20303;-59
2023/07/08 11:21:31;;;;;;;6.85;6.10;;;;;;;30.79;34.84;100234.59;4951272;28;20248;-59
2023/07/08 11:24:07;;;;;;;10.85;6.32;;;;;;;31.34;33.65;100227.88;4966137;28;20199;-60
2023/07/08 11:26:43;;;;;;;10.30;6.28;;;;;;;31.49;33.60;100225.69;4950703;28;20254;-60
2023/07/08 11:29:19;;;;;;;8.43;6.80;;;;;;;31.34;35.21;100226.03;4951234;29;20275;-59